»·PEaware :: N636EV KDCA-1N2

N636EV :: KDCA-1N2

FLIGHT INFORMATION

Flight Status: Arrived
Operator: Privately registered:
United States
More flights under this callsign
Pilot: Drew Leevy (13237)
Aircraft: CESSNA 172 SKYHAWK
(C172)
More flights by this aircraft type
Origin: KDCA Ronald Reagan Washington Natl
United States
Destination: 1N2 Spadaro
United States
More flights between these airports :: More routes between these airports
Route:
File this flight plan on PilotEdge
Remarks:
Altitude:
(Current/Filed)
9,500ft
Speed:
(Current/Filed)
134kts
Departed: 23-Apr-17 10:56 AM
Arrived: 23-Apr-17 01:00 PM
Distance/Time
Traveled:
230nm/2:04
Distance/Time
To Go:
Arrived

Flight Plot

Page will automatically refresh every two minutes.

Flight plan parsing failed; only flown route is shown


Map Options




Map Legend


Flown Route
Filed Route
Departure Airport
Arrival Airport
Navaid (VOR, NDB)
Fix

Horizontal Profiles

Position Reports

Time Latitude Longitude Heading Altitude Ground
Speed
23-Apr-17 10:57 38.856224 -77.037993 131 280ft 58kts
23-Apr-17 10:58 38.870408 -77.013653 50 710ft 109kts
23-Apr-17 10:59 38.888868 -76.982160 56 1364ft 100kts
23-Apr-17 11:00 38.901792 -76.957410 58 2580ft 69kts
23-Apr-17 11:01 38.912134 -76.936458 49 3349ft 82kts
23-Apr-17 11:02 38.925623 -76.909387 50 4088ft 94kts
23-Apr-17 11:03 38.939801 -76.880475 50 4668ft 96kts
23-Apr-17 11:04 38.954082 -76.851218 50 5265ft 98kts
23-Apr-17 11:05 38.968676 -76.821226 50 5756ft 99kts
23-Apr-17 11:06 38.982461 -76.792785 49 6411ft 86kts
23-Apr-17 11:07 38.993972 -76.769059 47 7170ft 72kts
23-Apr-17 11:08 39.004079 -76.748427 47 7795ft 74kts
23-Apr-17 11:09 39.016608 -76.722670 49 8223ft 92kts
23-Apr-17 11:10 39.030663 -76.693587 50 8595ft 98kts
23-Apr-17 11:11 39.045161 -76.663570 49 8983ft 99kts
23-Apr-17 11:12 39.059673 -76.633475 50 9366ft 98kts
23-Apr-17 11:13 39.074683 -76.602346 50 9624ft 107kts
23-Apr-17 11:14 39.090928 -76.568771 50 9681ft 115kts
23-Apr-17 11:15 39.107857 -76.533623 50 9684ft 118kts
23-Apr-17 11:16 39.125127 -76.497744 50 9683ft 118kts
23-Apr-17 11:17 39.142515 -76.461583 50 9684ft 118kts
23-Apr-17 11:18 39.159818 -76.425566 50 9683ft 118kts
23-Apr-17 11:19 39.177111 -76.389530 50 9683ft 118kts
23-Apr-17 11:20 39.194342 -76.353577 50 9683ft 118kts
23-Apr-17 11:21 39.208574 -76.323857 51 9682ft 118kts
23-Apr-17 11:22 39.225809 -76.287826 51 9682ft 118kts
23-Apr-17 11:23 39.243029 -76.251787 51 9682ft 118kts
23-Apr-17 11:24 39.260238 -76.215731 51 9682ft 118kts
23-Apr-17 11:25 39.277474 -76.179575 51 9682ft 118kts
23-Apr-17 11:26 39.294611 -76.143582 51 9682ft 118kts
23-Apr-17 11:27 39.311782 -76.107483 51 9682ft 118kts
23-Apr-17 11:28 39.328935 -76.071383 51 9682ft 118kts
23-Apr-17 11:29 39.346089 -76.035236 51 9682ft 118kts
23-Apr-17 11:30 39.363179 -75.999183 51 9682ft 118kts
23-Apr-17 11:31 39.380407 -75.962794 51 9655ft 118kts
23-Apr-17 11:32 39.397473 -75.926696 52 9654ft 117kts
23-Apr-17 11:33 39.414509 -75.890645 51 9655ft 117kts
23-Apr-17 11:34 39.430893 -75.855922 51 9655ft 117kts
23-Apr-17 11:35 39.447879 -75.819882 51 9655ft 117kts
23-Apr-17 11:36 39.464931 -75.783672 51 9655ft 117kts
23-Apr-17 11:37 39.481910 -75.747569 51 9655ft 117kts
23-Apr-17 11:38 39.498909 -75.711372 51 9655ft 117kts
23-Apr-17 11:39 39.515846 -75.675266 51 9655ft 117kts
23-Apr-17 11:40 39.532805 -75.639079 51 9655ft 117kts
23-Apr-17 11:41 39.549736 -75.602918 51 9655ft 117kts
23-Apr-17 11:42 39.566650 -75.566745 51 9655ft 117kts
23-Apr-17 11:43 39.583576 -75.530508 51 9655ft 117kts
23-Apr-17 11:44 39.600406 -75.494435 52 9654ft 117kts
23-Apr-17 11:45 39.617272 -75.458243 51 9652ft 117kts
23-Apr-17 11:46 39.634169 -75.421959 51 9660ft 117kts
23-Apr-17 11:47 39.651065 -75.385620 52 9659ft 118kts
23-Apr-17 11:48 39.667824 -75.349512 52 9654ft 117kts
23-Apr-17 11:49 39.682065 -75.318819 52 9657ft 117kts
23-Apr-17 11:50 39.698927 -75.282412 52 9657ft 117kts
23-Apr-17 11:51 39.715733 -75.246099 52 9649ft 116kts
23-Apr-17 11:52 39.732504 -75.209829 52 9653ft 117kts
23-Apr-17 11:53 39.749219 -75.173631 52 9653ft 117kts
23-Apr-17 11:54 39.765943 -75.137362 52 9653ft 117kts
23-Apr-17 11:55 39.782605 -75.101196 52 9653ft 117kts
23-Apr-17 11:56 39.799354 -75.064802 52 9653ft 117kts
23-Apr-17 11:57 39.816035 -75.028543 53 9654ft 118kts
23-Apr-17 11:58 39.832822 -74.991940 53 9654ft 118kts
23-Apr-17 11:59 39.849745 -74.955026 53 9653ft 118kts
23-Apr-17 12:00 39.866656 -74.918096 53 9653ft 118kts
23-Apr-17 12:01 39.883530 -74.881206 53 9653ft 118kts
23-Apr-17 12:02 39.900384 -74.844324 53 9653ft 118kts
23-Apr-17 12:03 39.917255 -74.807360 53 9653ft 118kts
23-Apr-17 12:04 39.934163 -74.770272 54 9626ft 119kts
23-Apr-17 12:05 39.951025 -74.733230 54 9626ft 118kts
23-Apr-17 12:06 39.967788 -74.696363 54 9626ft 118kts
23-Apr-17 12:07 39.984623 -74.659297 54 9626ft 118kts
23-Apr-17 12:08 40.001404 -74.622305 54 9626ft 118kts
23-Apr-17 12:09 40.018212 -74.585229 53 9559ft 123kts
23-Apr-17 12:10 40.035633 -74.546711 56 9454ft 122kts
23-Apr-17 12:11 40.052619 -74.509110 55 9460ft 118kts
23-Apr-17 12:12 40.069530 -74.471723 54 9462ft 120kts
23-Apr-17 12:13 40.086473 -74.434131 55 9461ft 120kts
23-Apr-17 12:14 40.102986 -74.397456 53 9468ft 118kts
23-Apr-17 12:15 40.118956 -74.361928 53 9654ft 113kts
23-Apr-17 12:16 40.131745 -74.333485 54 9656ft 118kts
23-Apr-17 12:17 40.148456 -74.296246 54 9655ft 119kts
23-Apr-17 12:18 40.165180 -74.258942 54 9655ft 119kts
23-Apr-17 12:19 40.181911 -74.221585 54 9655ft 119kts
23-Apr-17 12:20 40.198612 -74.184237 54 9655ft 119kts
23-Apr-17 12:21 40.215273 -74.146934 54 9655ft 119kts
23-Apr-17 12:22 40.231919 -74.109610 54 9655ft 119kts
23-Apr-17 12:23 40.248573 -74.072229 54 9655ft 119kts
23-Apr-17 12:24 40.263347 -74.039036 54 9655ft 119kts
23-Apr-17 12:25 40.279995 -74.001594 54 9655ft 119kts
23-Apr-17 12:26 40.296567 -73.964280 54 9655ft 119kts
23-Apr-17 12:26 40.310435 -73.933024 54 9655ft 119kts
23-Apr-17 12:28 40.329772 -73.889384 54 9655ft 119kts
23-Apr-17 12:29 40.346340 -73.851937 55 9655ft 119kts
23-Apr-17 12:29 40.360125 -73.820723 55 9655ft 119kts
23-Apr-17 12:31 40.379454 -73.776954 55 9655ft 119kts
23-Apr-17 12:31 40.393235 -73.745699 55 9655ft 119kts
23-Apr-17 12:33 40.412512 -73.701927 55 9655ft 118kts
23-Apr-17 12:33 40.426242 -73.670705 55 9655ft 118kts
23-Apr-17 12:35 40.445450 -73.626982 55 9655ft 118kts
23-Apr-17 12:35 40.459147 -73.595765 55 9649ft 119kts
23-Apr-17 12:37 40.478486 -73.551631 55 9628ft 119kts
23-Apr-17 12:38 40.494923 -73.514070 55 9628ft 118kts
23-Apr-17 12:38 40.508646 -73.482676 55 9628ft 118kts
23-Apr-17 12:40 40.527776 -73.438883 55 9628ft 118kts
23-Apr-17 12:40 40.541443 -73.407521 55 9628ft 118kts
23-Apr-17 12:41 40.557876 -73.369782 55 9628ft 118kts
23-Apr-17 12:43 40.576907 -73.326021 55 9627ft 118kts
23-Apr-17 12:43 40.590631 -73.294598 55 9627ft 118kts
23-Apr-17 12:45 40.609706 -73.250809 55 9627ft 118kts
23-Apr-17 12:45 40.623355 -73.219319 55 9627ft 118kts
23-Apr-17 12:47 40.642440 -73.175228 55 9627ft 118kts
23-Apr-17 12:47 40.656049 -73.143751 55 9627ft 118kts
23-Apr-17 12:48 40.672337 -73.106034 55 9627ft 118kts
23-Apr-17 12:49 40.688634 -73.068247 55 9627ft 118kts
23-Apr-17 12:50 40.704931 -73.030408 55 9627ft 118kts
23-Apr-17 12:51 40.721172 -72.992641 55 9639ft 118kts
23-Apr-17 12:52 40.735812 -72.958588 56 9523ft 123kts
23-Apr-17 12:53 40.752206 -72.920374 57 8169ft 121kts
23-Apr-17 12:54 40.768773 -72.881694 64 6588ft 115kts
23-Apr-17 12:55 40.783519 -72.846994 56 4977ft 108kts
23-Apr-17 12:56 40.798016 -72.813264 56 3416ft 106kts
23-Apr-17 12:57 40.794142 -72.780810 137 1873ft 108kts
23-Apr-17 12:58 40.782940 -72.751761 51 785ft 89kts
23-Apr-17 12:59 40.802305 -72.745425 359 604ft 67kts
23-Apr-17 13:00 40.819301 -72.748020 354 228ft 61kts
23-Apr-17 13:01 40.825024 -72.749121 170 52ft 18kts
23-Apr-17 13:02 40.823830 -72.749162 267 52ft 0kts
23-Apr-17 13:03 40.823830 -72.749162 267 52ft 0kts
23-Apr-17 13:04 40.823830 -72.749162 267 52ft 0kts
23-Apr-17 13:05 40.823830 -72.749162 267 52ft 0kts

Navigation Log

Ident Type
Flight plan parsing failed, navigation log unavailable